createdAt,value
2019-04-28T00:01:33.870Z,0.90
2019-04-28T00:04:03.396Z,1.00
2019-04-28T00:06:32.142Z,0.83
2019-04-28T00:09:01.757Z,0.90
2019-04-28T00:11:31.722Z,0.80
2019-04-28T00:14:01.791Z,1.63
2019-04-28T00:16:31.136Z,0.70
2019-04-28T00:19:01.109Z,0.70
2019-04-28T00:21:34.357Z,1.17
2019-04-28T00:24:07.579Z,0.57
2019-04-28T00:26:43.439Z,0.60
2019-04-28T00:29:13.517Z,0.60
2019-04-28T00:31:42.129Z,0.50
2019-04-28T00:34:11.461Z,0.77
2019-04-28T00:36:41.208Z,0.70
2019-04-28T00:39:11.076Z,0.60
2019-04-28T00:41:39.695Z,1.10
2019-04-28T00:44:07.955Z,0.73
2019-04-28T00:46:37.860Z,0.77
2019-04-28T00:49:08.598Z,0.67
2019-04-28T00:51:38.508Z,0.87
2019-04-28T00:54:06.745Z,0.80
2019-04-28T00:56:35.122Z,0.50
2019-04-28T00:59:03.419Z,0.73
2019-04-28T01:01:42.834Z,0.80
2019-04-28T01:04:11.802Z,0.57
2019-04-28T01:06:40.613Z,0.70
2019-04-28T01:09:11.733Z,0.83
2019-04-28T01:11:41.437Z,0.70
2019-04-28T01:14:11.459Z,0.60
2019-04-28T01:16:49.839Z,0.90
2019-04-28T01:19:20.218Z,0.67
2019-04-28T01:22:06.529Z,1.00
2019-04-28T01:24:35.245Z,1.00
2019-04-28T01:27:04.173Z,0.73
2019-04-28T01:29:32.874Z,0.90
2019-04-28T01:32:20.341Z,0.60
2019-04-28T01:34:49.876Z,0.90
2019-04-28T01:37:19.636Z,0.87
2019-04-28T01:39:49.609Z,0.83
2019-04-28T01:42:20.273Z,1.23
2019-04-28T01:44:49.511Z,0.80
2019-04-28T01:47:18.342Z,0.90
2019-04-28T01:49:47.365Z,0.80
2019-04-28T01:52:16.010Z,0.90
2019-04-28T01:54:44.659Z,0.90
2019-04-28T01:57:13.293Z,1.03
2019-04-28T01:59:41.882Z,0.80
2019-04-28T02:02:10.536Z,0.90
2019-04-28T02:04:40.276Z,0.80
2019-04-28T02:07:10.886Z,0.77
2019-04-28T02:09:39.636Z,1.00
2019-04-28T02:12:10.515Z,0.70
2019-04-28T02:14:40.389Z,0.83
2019-04-28T02:17:10.517Z,0.60
2019-04-28T02:19:40.978Z,0.90
2019-04-28T02:22:11.490Z,0.70
2019-04-28T02:24:40.577Z,0.60
2019-04-28T02:27:10.626Z,0.73
2019-04-28T02:29:41.443Z,0.70
2019-04-28T02:32:11.633Z,0.60
2019-04-28T02:34:41.223Z,0.70
2019-04-28T02:37:11.298Z,0.60
2019-04-28T02:39:41.167Z,0.73
2019-04-28T02:42:10.961Z,0.60
2019-04-28T02:44:40.837Z,0.63
2019-04-28T02:47:10.848Z,0.53
2019-04-28T02:49:50.130Z,0.40
2019-04-28T02:52:20.704Z,0.50
2019-04-28T02:54:50.769Z,0.47
2019-04-28T02:57:20.868Z,0.63
2019-04-28T02:59:50.842Z,0.60
2019-04-28T03:02:20.771Z,0.40
2019-04-28T03:04:50.626Z,0.33
2019-04-28T03:07:21.779Z,0.50
2019-04-28T03:09:51.983Z,0.40
2019-04-28T03:12:21.582Z,0.40
2019-04-28T03:14:50.737Z,0.50
2019-04-28T03:17:20.789Z,0.40
2019-04-28T03:19:51.672Z,0.50
2019-04-28T03:22:20.517Z,0.40
2019-04-28T03:24:51.146Z,0.40
2019-04-28T03:27:34.506Z,0.50
2019-04-28T03:30:07.550Z,0.60
2019-04-28T03:32:47.365Z,0.50
2019-04-28T03:35:12.362Z,0.50
2019-04-28T03:37:38.051Z,0.60
2019-04-28T03:40:07.237Z,0.60
2019-04-28T03:42:35.978Z,0.60
2019-04-28T03:45:07.113Z,0.60
2019-04-28T03:47:35.573Z,0.50
2019-04-28T03:50:04.565Z,0.70
2019-04-28T03:52:32.829Z,0.47
2019-04-28T03:55:01.058Z,0.70
2019-04-28T03:57:31.358Z,0.60
2019-04-28T04:00:01.590Z,0.53
2019-04-28T04:02:31.124Z,0.60
2019-04-28T04:05:03.321Z,0.50
2019-04-28T04:07:31.145Z,0.50
2019-04-28T04:12:51.141Z,0.50
2019-04-28T04:15:30.939Z,0.70
2019-04-28T04:18:06.933Z,0.70
2019-04-28T04:20:35.233Z,0.70
2019-04-28T04:23:03.455Z,0.70
2019-04-28T04:25:31.704Z,0.80
2019-04-28T04:28:03.234Z,0.77
2019-04-28T04:30:31.181Z,0.57
2019-04-28T04:33:01.248Z,0.80
2019-04-28T04:35:31.571Z,0.53
2019-04-28T04:38:00.432Z,0.67
2019-04-28T04:40:31.969Z,0.60
2019-04-28T04:43:01.350Z,0.70
2019-04-28T04:45:30.609Z,0.63
2019-04-28T04:48:00.648Z,0.70
2019-04-28T04:50:31.076Z,0.60
2019-04-28T04:52:58.627Z,0.60
2019-04-28T04:55:26.842Z,0.40
2019-04-28T04:57:55.078Z,0.60
2019-04-28T05:00:25.004Z,1.10
2019-04-28T05:03:00.684Z,0.80
2019-04-28T05:05:35.690Z,0.90
2019-04-28T05:08:03.999Z,0.83
2019-04-28T05:10:32.222Z,0.53
2019-04-28T05:13:00.843Z,0.77
2019-04-28T05:15:30.385Z,0.83
2019-04-28T05:18:00.253Z,0.60
2019-04-28T05:20:30.285Z,0.70
2019-04-28T05:23:03.125Z,0.80
2019-04-28T05:25:33.292Z,0.70
2019-04-28T05:28:02.993Z,0.70
2019-04-28T05:30:34.803Z,0.60
2019-04-28T05:33:02.053Z,0.70
2019-04-28T05:35:30.834Z,0.83
2019-04-28T05:37:59.866Z,0.80
2019-04-28T05:40:29.580Z,1.03
2019-04-28T05:42:58.198Z,0.70
2019-04-28T05:45:31.899Z,0.90
2019-04-28T05:48:00.659Z,0.60
2019-04-28T05:50:33.872Z,0.50
2019-04-28T05:53:04.146Z,0.80
2019-04-28T05:55:50.429Z,0.70
2019-04-28T05:58:20.706Z,0.90
2019-04-28T06:00:53.958Z,0.67
2019-04-28T06:03:24.342Z,0.80
2019-04-28T06:05:52.948Z,0.70
2019-04-28T06:08:32.335Z,0.97
2019-04-28T06:11:02.495Z,0.63
2019-04-28T06:13:31.054Z,0.93
2019-04-28T06:15:59.915Z,1.00
2019-04-28T06:18:28.549Z,0.97
2019-04-28T06:20:57.030Z,0.80
2019-04-28T06:23:25.566Z,1.13
2019-04-28T06:25:54.130Z,0.70
2019-04-28T06:28:27.444Z,0.60
2019-04-28T06:30:56.065Z,0.80
2019-04-28T06:33:24.695Z,0.90
2019-04-28T06:35:53.261Z,0.80
2019-04-28T06:38:21.871Z,0.93
2019-04-28T06:40:50.504Z,0.90
2019-04-28T06:43:19.046Z,0.57
2019-04-28T06:45:47.701Z,1.20
2019-04-28T06:48:25.032Z,0.63
2019-04-28T06:50:53.726Z,0.67
2019-04-28T06:53:22.547Z,1.00
2019-04-28T06:55:52.218Z,0.80
2019-04-28T06:58:22.485Z,0.90
2019-04-28T07:00:54.496Z,0.90
2019-04-28T07:03:24.955Z,0.90
2019-04-28T07:05:54.004Z,0.90
2019-04-28T07:08:23.024Z,0.97
2019-04-28T07:10:52.824Z,0.90
2019-04-28T07:13:23.683Z,1.03
2019-04-28T07:15:53.812Z,0.90
2019-04-28T07:18:23.113Z,0.90
2019-04-28T07:21:03.769Z,0.90
2019-04-28T07:23:35.691Z,0.90
2019-04-28T07:26:05.836Z,0.90
2019-04-28T07:28:37.177Z,1.10
2019-04-28T07:31:07.725Z,1.00
2019-04-28T07:33:38.014Z,0.80
2019-04-28T07:36:08.969Z,0.93
2019-04-28T07:38:38.619Z,0.90
2019-04-28T07:41:11.124Z,0.90
2019-04-28T07:43:40.689Z,0.90
2019-04-28T07:46:10.865Z,1.10
2019-04-28T07:48:41.353Z,0.97
2019-04-28T07:51:10.297Z,0.80
2019-04-28T07:53:49.250Z,1.00
2019-04-28T07:56:17.979Z,0.90
2019-04-28T07:58:47.816Z,1.00
2019-04-28T08:01:16.916Z,0.93
2019-04-28T08:03:49.676Z,1.03
2019-04-28T08:06:19.991Z,1.47
2019-04-28T08:08:50.710Z,1.00
2019-04-28T08:11:19.891Z,1.00
2019-04-28T08:13:50.655Z,0.87
2019-04-28T08:16:20.131Z,1.10
2019-04-28T08:18:49.588Z,1.00
2019-04-28T08:21:19.401Z,1.07
2019-04-28T08:23:48.599Z,0.87
2019-04-28T08:26:18.015Z,1.10
2019-04-28T08:28:47.046Z,0.83
2019-04-28T08:31:18.103Z,1.10
2019-04-28T08:34:01.282Z,1.10
2019-04-28T08:36:20.093Z,0.80
2019-04-28T08:38:50.166Z,1.13
2019-04-28T08:41:20.730Z,1.00
2019-04-28T08:43:50.992Z,1.13
2019-04-28T08:46:21.572Z,1.00
2019-04-28T08:48:51.139Z,1.10
2019-04-28T08:51:22.031Z,1.03
2019-04-28T08:53:52.476Z,0.90
2019-04-28T08:56:22.825Z,1.00
2019-04-28T08:58:53.774Z,0.93
2019-04-28T09:01:23.779Z,0.97
2019-04-28T09:03:52.901Z,1.10
2019-04-28T09:06:21.816Z,0.90
2019-04-28T09:08:50.465Z,1.30
2019-04-28T09:11:20.859Z,1.00
2019-04-28T09:13:50.470Z,0.80
2019-04-28T09:16:19.522Z,0.90
2019-04-28T09:18:49.041Z,0.87
2019-04-28T09:21:30.292Z,0.93
2019-04-28T09:23:59.016Z,0.53
2019-04-28T09:26:38.700Z,0.67
2019-04-28T09:29:08.962Z,0.70
2019-04-28T09:31:45.131Z,0.70
2019-04-28T09:34:14.093Z,0.73
2019-04-28T09:36:51.198Z,0.60
2019-04-28T09:39:32.190Z,0.90
2019-04-28T09:46:59.674Z,0.90
2019-04-28T09:47:59.610Z,0.70
2019-04-28T09:50:28.865Z,0.70
2019-04-28T09:53:03.885Z,0.70
2019-04-28T09:55:59.648Z,0.80
2019-04-28T09:58:40.821Z,1.00
2019-04-28T10:01:24.820Z,0.80
2019-04-28T10:04:27.730Z,0.70
2019-04-28T10:06:50.856Z,0.80
2019-04-28T10:09:40.922Z,0.90
2019-04-28T10:12:30.544Z,0.73
2019-04-28T10:15:31.349Z,0.97
2019-04-28T10:18:10.954Z,0.70
2019-04-28T10:20:54.792Z,0.60
2019-04-28T10:23:49.601Z,0.50
2019-04-28T10:26:18.395Z,0.73
2019-04-28T10:29:11.602Z,0.80
2019-04-28T10:31:40.956Z,1.00
2019-04-28T10:37:04.086Z,0.90
2019-04-28T10:39:48.007Z,0.70
2019-04-28T10:45:42.316Z,0.90
2019-04-28T10:48:19.271Z,0.60
2019-04-28T10:50:57.128Z,0.60
2019-04-28T10:53:28.762Z,0.70
2019-04-28T10:56:14.368Z,0.63
2019-04-28T10:58:50.265Z,0.70
2019-04-28T11:01:26.201Z,0.70
2019-04-28T11:03:56.576Z,0.70
2019-04-28T11:06:29.710Z,0.50
2019-04-28T11:09:04.400Z,0.67
2019-04-28T11:11:33.077Z,0.80
2019-04-28T11:14:01.798Z,0.90
2019-04-28T11:16:32.218Z,0.90
2019-04-28T11:19:04.113Z,0.97
2019-04-28T11:21:36.770Z,0.60
2019-04-28T11:24:07.893Z,1.10
2019-04-28T11:26:43.826Z,0.70
2019-04-28T11:29:15.295Z,0.80
2019-04-28T11:31:45.600Z,0.93
2019-04-28T11:34:22.000Z,1.00
2019-04-28T11:36:50.836Z,0.90
2019-04-28T11:39:21.294Z,0.80
2019-04-28T11:41:49.924Z,0.90
2019-04-28T11:44:18.558Z,0.83
2019-04-28T11:46:47.229Z,0.90
2019-04-28T11:49:15.813Z,0.70
2019-04-28T11:51:45.659Z,0.87
2019-04-28T11:54:16.410Z,0.87
2019-04-28T11:56:47.088Z,0.83
2019-04-28T11:59:16.114Z,1.50
2019-04-28T12:01:44.906Z,0.90
2019-04-28T12:04:15.383Z,0.87
2019-04-28T12:06:44.065Z,0.70
2019-04-28T12:09:14.271Z,1.50
2019-04-28T12:11:44.497Z,1.03
2019-04-28T12:14:20.684Z,1.10
2019-04-28T12:17:07.006Z,1.10
2019-04-28T12:19:46.122Z,0.90
2019-04-28T12:22:14.858Z,0.90
2019-04-28T12:24:43.474Z,1.10
2019-04-28T12:27:12.123Z,1.10
2019-04-28T12:29:43.350Z,0.90
2019-04-28T12:32:12.053Z,1.20
2019-04-28T12:34:40.799Z,1.00
2019-04-28T12:37:09.939Z,1.10
2019-04-28T12:39:38.535Z,0.80
2019-04-28T12:42:07.209Z,0.80
2019-04-28T12:44:35.819Z,0.93
2019-04-28T12:47:04.600Z,1.00
2019-04-28T12:49:37.559Z,1.10
2019-04-28T12:52:06.249Z,0.90
2019-04-28T12:54:36.445Z,0.90
2019-04-28T12:57:05.086Z,1.00
2019-04-28T12:59:35.416Z,0.93
2019-04-28T13:02:20.887Z,0.93
2019-04-28T13:04:51.251Z,1.20
2019-04-28T13:07:21.181Z,1.03
2019-04-28T13:09:49.733Z,1.10
2019-04-28T13:12:18.472Z,0.80
2019-04-28T13:14:47.231Z,1.40
2019-04-28T13:17:15.715Z,1.10
2019-04-28T13:19:44.301Z,1.00
2019-04-28T13:22:12.929Z,0.97
2019-04-28T13:24:41.556Z,1.40
2019-04-28T13:27:10.457Z,1.20
2019-04-28T13:29:39.366Z,0.70
2019-04-28T13:32:08.120Z,1.27
2019-04-28T13:34:38.416Z,1.03
2019-04-28T13:37:07.103Z,1.20
2019-04-28T13:39:37.399Z,1.20
2019-04-28T13:42:06.654Z,1.17
2019-04-28T13:44:52.972Z,2.57
2019-04-28T13:47:22.238Z,1.50
2019-04-28T13:49:55.614Z,1.13
2019-04-28T13:52:24.158Z,1.30
2019-04-28T13:54:54.538Z,1.20
2019-04-28T13:57:23.338Z,1.00
2019-04-28T13:59:53.744Z,1.13
2019-04-28T14:02:40.575Z,1.30
2019-04-28T14:05:19.395Z,1.47
2019-04-28T14:07:48.404Z,1.20
2019-04-28T14:10:34.477Z,1.10
2019-04-28T14:13:03.022Z,1.17
2019-04-28T14:15:31.569Z,1.00
2019-04-28T14:18:00.290Z,1.47
2019-04-28T14:20:28.970Z,1.30
2019-04-28T14:22:57.611Z,0.80
2019-04-28T14:25:26.287Z,1.20
2019-04-28T14:27:55.006Z,0.87
2019-04-28T14:30:23.742Z,0.90
2019-04-28T14:32:52.282Z,1.00
2019-04-28T14:35:20.922Z,0.87
2019-04-28T14:37:49.616Z,0.87
2019-04-28T14:40:18.218Z,1.10
2019-04-28T14:42:46.724Z,1.10
2019-04-28T14:45:15.499Z,0.80
2019-04-28T14:47:44.175Z,1.00
2019-04-28T14:50:12.814Z,1.00
2019-04-28T14:52:41.375Z,1.07
2019-04-28T14:55:10.166Z,1.73
2019-04-28T14:57:38.822Z,1.03
2019-04-28T15:00:09.479Z,1.00
2019-04-28T15:02:42.945Z,1.20
2019-04-28T15:05:13.429Z,1.40
2019-04-28T15:07:52.600Z,1.40
2019-04-28T15:10:39.310Z,1.10
2019-04-28T15:13:08.267Z,1.67
2019-04-28T15:15:37.367Z,1.33
2019-04-28T15:18:05.870Z,1.37
2019-04-28T15:20:34.652Z,1.17
2019-04-28T15:23:03.526Z,1.37
2019-04-28T15:25:32.103Z,1.60
2019-04-28T15:28:00.744Z,1.30
2019-04-28T15:30:29.392Z,1.30
2019-04-28T15:33:09.566Z,1.50
2019-04-28T15:35:38.199Z,1.53
2019-04-28T15:38:06.747Z,1.30
2019-04-28T15:40:35.468Z,1.53
2019-04-28T15:43:04.184Z,1.27
2019-04-28T15:45:32.894Z,1.70
2019-04-28T15:48:01.662Z,1.30
2019-04-28T15:50:30.208Z,1.47
2019-04-28T15:52:58.858Z,1.47
2019-04-28T15:55:38.162Z,1.67
2019-04-28T15:58:24.867Z,1.70
2019-04-28T16:00:53.565Z,0.90
2019-04-28T16:03:22.285Z,1.00
2019-04-28T16:05:51.095Z,1.33
2019-04-28T16:08:19.646Z,1.47
2019-04-28T16:10:48.360Z,1.37
2019-04-28T16:13:17.146Z,1.90
2019-04-28T16:15:45.860Z,1.63
2019-04-28T16:18:26.807Z,1.30
2019-04-28T16:20:55.675Z,1.33
2019-04-28T16:23:24.377Z,1.70
2019-04-28T16:25:53.002Z,1.93
2019-04-28T16:28:21.757Z,1.80
2019-04-28T16:30:51.139Z,1.60
2019-04-28T16:33:19.764Z,1.80
2019-04-28T16:35:48.514Z,1.67
2019-04-28T16:38:17.110Z,1.60
2019-04-28T16:40:48.176Z,3.10
2019-04-28T16:43:18.822Z,1.60
2019-04-28T16:45:47.469Z,1.77
2019-04-28T16:48:16.240Z,1.77
2019-04-28T16:50:44.908Z,1.60
2019-04-28T16:53:13.442Z,1.80
2019-04-28T16:55:43.661Z,1.50
2019-04-28T16:58:30.013Z,1.70
2019-04-28T17:01:00.275Z,1.70
2019-04-28T17:03:30.527Z,1.80
2019-04-28T17:05:59.147Z,1.60
2019-04-28T17:08:27.808Z,1.37
2019-04-28T17:10:57.321Z,1.40
2019-04-28T17:13:25.931Z,1.27
2019-04-28T17:15:54.502Z,1.43
2019-04-28T17:18:23.083Z,1.93
2019-04-28T17:20:54.338Z,1.70
2019-04-28T17:23:21.969Z,2.07
2019-04-28T17:25:50.502Z,2.00
2019-04-28T17:28:19.211Z,1.67
2019-04-28T17:30:47.805Z,1.70
2019-04-28T17:33:16.519Z,1.10
2019-04-28T17:35:45.208Z,1.67
2019-04-28T17:38:13.906Z,1.90
2019-04-28T17:40:42.859Z,1.90
2019-04-28T17:43:11.498Z,1.87
2019-04-28T17:45:40.111Z,2.77
2019-04-28T17:48:28.515Z,1.30
2019-04-28T17:50:57.201Z,1.40
2019-04-28T17:53:25.862Z,1.60
2019-04-28T17:55:54.415Z,2.30
2019-04-28T17:58:23.050Z,1.53
2019-04-28T18:00:56.031Z,1.67
2019-04-28T18:03:41.460Z,2.00
2019-04-28T18:06:18.379Z,1.90
2019-04-28T18:08:47.363Z,1.70
2019-04-28T18:11:16.039Z,3.03
2019-04-28T18:13:44.672Z,2.40
2019-04-28T18:16:30.021Z,2.37
2019-04-28T18:19:15.371Z,1.93
2019-04-28T18:21:44.065Z,2.20
2019-04-28T18:24:12.671Z,2.00
2019-04-28T18:26:41.283Z,1.83
2019-04-28T18:29:10.061Z,1.83
2019-04-28T18:31:52.317Z,2.20
2019-04-28T18:34:22.707Z,1.97
2019-04-28T18:36:55.548Z,1.70
2019-04-28T18:39:26.179Z,2.20
2019-04-28T18:42:14.682Z,2.10
2019-04-28T18:44:41.932Z,2.57
2019-04-28T18:47:10.548Z,4.00
2019-04-28T18:49:39.172Z,2.50
2019-04-28T18:52:07.778Z,2.50
2019-04-28T18:54:36.338Z,2.23
2019-04-28T18:57:04.979Z,2.80
2019-04-28T18:59:33.575Z,2.40
2019-04-28T19:02:12.510Z,2.13
2019-04-28T19:04:41.050Z,2.20
2019-04-28T19:07:11.330Z,1.93
2019-04-28T19:09:56.324Z,1.93
2019-04-28T19:12:32.424Z,2.00
2019-04-28T19:15:05.425Z,2.00
2019-04-28T19:17:41.619Z,1.80
2019-04-28T19:20:13.394Z,2.83
2019-04-28T19:22:49.585Z,1.80
2019-04-28T19:25:18.081Z,1.63
2019-04-28T19:27:46.677Z,2.03
2019-04-28T19:30:15.456Z,1.87
2019-04-28T19:32:44.103Z,1.70
2019-04-28T19:35:13.373Z,1.80
2019-04-28T19:37:42.063Z,1.67
2019-04-28T19:40:10.838Z,1.67
2019-04-28T19:42:39.539Z,1.60
2019-04-28T19:45:11.962Z,1.70
2019-04-28T19:47:40.370Z,1.87
2019-04-28T19:50:09.861Z,1.60
2019-04-28T19:52:40.967Z,2.10
2019-04-28T19:55:10.599Z,1.50
2019-04-28T19:57:40.898Z,1.70
2019-04-28T20:00:29.991Z,1.80
2019-04-28T20:02:58.555Z,2.00
2019-04-28T20:05:27.282Z,1.70
2019-04-28T20:07:55.902Z,1.73
2019-04-28T20:10:24.556Z,1.27
2019-04-28T20:12:53.278Z,1.73
2019-04-28T20:15:21.871Z,1.80
2019-04-28T20:17:51.574Z,1.60
2019-04-28T20:20:20.143Z,1.50
2019-04-28T20:22:48.852Z,1.67
2019-04-28T20:25:17.541Z,1.57
2019-04-28T20:27:46.247Z,1.30
2019-04-28T20:30:15.149Z,1.70
2019-04-28T20:32:46.959Z,1.20
2019-04-28T20:35:17.572Z,1.33
2019-04-28T20:37:50.652Z,1.47
2019-04-28T20:40:21.094Z,1.43
2019-04-28T20:43:03.127Z,1.60
2019-04-28T20:45:31.870Z,1.57
2019-04-28T20:48:00.399Z,1.43
2019-04-28T20:50:29.110Z,1.50
2019-04-28T20:52:57.815Z,1.60
2019-04-28T20:55:26.420Z,1.40
2019-04-28T20:57:54.949Z,1.30
2019-04-28T21:00:23.644Z,1.50
2019-04-28T21:02:52.262Z,1.60
2019-04-28T21:05:20.980Z,1.40
2019-04-28T21:07:49.658Z,1.77
2019-04-28T21:10:18.354Z,1.53
2019-04-28T21:12:46.908Z,1.17
2019-04-28T21:15:15.652Z,1.60
2019-04-28T21:17:44.192Z,1.50
2019-04-28T21:20:13.009Z,1.47
2019-04-28T21:22:41.618Z,1.40
2019-04-28T21:25:10.390Z,1.53
2019-04-28T21:27:38.987Z,1.17
2019-04-28T21:30:08.590Z,1.20
2019-04-28T21:32:37.202Z,1.20
2019-04-28T21:35:05.903Z,1.30
2019-04-28T21:37:34.515Z,1.57
2019-04-28T21:40:03.397Z,1.40
2019-04-28T21:42:49.861Z,1.30
2019-04-28T21:45:36.504Z,1.30
2019-04-28T21:48:05.182Z,1.40
2019-04-28T21:50:33.742Z,1.20
2019-04-28T21:53:02.269Z,1.60
2019-04-28T21:55:30.824Z,1.57
2019-04-28T21:57:59.674Z,1.57
2019-04-28T22:00:35.382Z,1.57
2019-04-28T22:03:03.994Z,1.40
2019-04-28T22:05:32.708Z,1.50
2019-04-28T22:08:01.295Z,1.43
2019-04-28T22:10:29.921Z,1.73
2019-04-28T22:12:58.470Z,1.30
2019-04-28T22:15:27.230Z,1.57
2019-04-28T22:17:55.692Z,1.30
2019-04-28T22:20:24.328Z,1.30
2019-04-28T22:22:52.879Z,1.27
2019-04-28T22:25:23.146Z,1.30
2019-04-28T22:27:51.723Z,1.30
2019-04-28T22:30:20.438Z,1.33
2019-04-28T22:32:49.050Z,1.70
2019-04-28T22:35:17.953Z,1.20
2019-04-28T22:37:46.624Z,1.57
2019-04-28T22:40:15.295Z,1.30
2019-04-28T22:42:43.984Z,1.00
2019-04-28T22:45:12.849Z,1.50
2019-04-28T22:47:41.648Z,1.17
2019-04-28T22:50:19.115Z,1.30
2019-04-28T22:52:47.676Z,1.37
2019-04-28T22:55:17.859Z,1.20
2019-04-28T22:57:53.799Z,1.50
2019-04-28T23:00:43.220Z,1.67
2019-04-28T23:03:13.747Z,1.40
2019-04-28T23:05:42.734Z,1.30
2019-04-28T23:08:11.353Z,1.30
2019-04-28T23:10:39.965Z,1.27
2019-04-28T23:13:08.595Z,1.47
2019-04-28T23:15:37.123Z,1.57
2019-04-28T23:18:05.826Z,1.60
2019-04-28T23:20:36.009Z,1.30
2019-04-28T23:23:06.268Z,1.60
2019-04-28T23:25:34.901Z,1.40
2019-04-28T23:28:03.778Z,1.33
2019-04-28T23:30:44.098Z,1.60
2019-04-28T23:33:12.771Z,1.40
2019-04-28T23:35:41.436Z,1.47
2019-04-28T23:38:09.972Z,1.57
2019-04-28T23:40:40.326Z,1.10
2019-04-28T23:43:10.505Z,1.60
2019-04-28T23:45:39.316Z,1.27
2019-04-28T23:48:07.856Z,1.63
2019-04-28T23:50:38.051Z,1.57
2019-04-28T23:53:08.233Z,1.63
2019-04-28T23:55:36.870Z,1.30
2019-04-28T23:58:05.546Z,2.00
